Time;durP1;ratioP1;P1;durP2;ratioP2;P2;SDS_P1;SDS_P2;PMS_P1;PMS_P2;Temp;Humidity;BMP_temperature;BMP_pressure;BME280_temperature;BME280_humidity;BME280_pressure;Samples;Min_cycle;Max_cycle;Signal;HPM_P1;HPM_P2
2023/01/20 00:01:10;;;;;;;7.80;4.23;;;13.30;51.70;;;;;;5049949;28;20461;-78
2023/01/20 00:03:39;;;;;;;6.93;3.87;;;13.30;51.80;;;;;;5049049;28;20518;-80
2023/01/20 00:06:07;;;;;;;7.00;4.37;;;13.30;51.70;;;;;;5047800;28;20451;-79
2023/01/20 00:08:38;;;;;;;5.80;4.10;;;13.30;51.60;;;;;;5053866;28;20439;-82
2023/01/20 00:11:06;;;;;;;5.80;4.10;;;13.30;51.70;;;;;;5051539;28;20444;-79
2023/01/20 00:13:34;;;;;;;5.27;3.93;;;13.30;51.60;;;;;;5049643;28;20457;-78
2023/01/20 00:16:02;;;;;;;6.33;4.00;;;13.30;51.70;;;;;;5053450;28;20442;-79
2023/01/20 00:18:32;;;;;;;8.13;4.13;;;13.30;51.70;;;;;;5044564;28;20471;-78
2023/01/20 00:21:02;;;;;;;5.97;3.77;;;13.20;51.60;;;;;;5051484;28;20449;-77
2023/01/20 00:23:30;;;;;;;6.53;4.00;;;13.20;51.70;;;;;;5050953;28;20455;-80
2023/01/20 00:26:01;;;;;;;6.33;4.30;;;13.20;51.60;;;;;;5054326;28;20508;-79
2023/01/20 00:28:32;;;;;;;5.40;4.00;;;13.20;51.70;;;;;;5057001;28;20450;-78
2023/01/20 00:31:10;;;;;;;7.00;3.80;;;13.20;51.90;;;;;;5056730;28;20449;-81
2023/01/20 00:33:41;;;;;;;5.97;3.60;;;13.20;51.70;;;;;;5056110;28;20463;-80
2023/01/20 00:36:09;;;;;;;5.97;3.90;;;13.20;51.60;;;;;;5057452;28;20490;-78
2023/01/20 00:38:37;;;;;;;7.50;4.50;;;13.20;51.60;;;;;;5049737;28;20542;-77
2023/01/20 00:41:06;;;;;;;4.87;3.90;;;13.20;51.60;;;;;;5056649;28;20485;-78
2023/01/20 00:43:34;;;;;;;5.97;3.70;;;13.20;51.60;;;;;;5055325;28;20455;-78
2023/01/20 00:46:03;;;;;;;5.57;3.80;;;13.10;51.50;;;;;;5059731;28;20480;-77
2023/01/20 00:48:32;;;;;;;5.37;3.63;;;13.10;51.60;;;;;;5056103;28;20534;-79
2023/01/20 00:51:02;;;;;;;5.40;3.90;;;13.10;51.50;;;;;;5059742;28;20442;-78
2023/01/20 00:53:30;;;;;;;4.20;3.80;;;13.10;51.50;;;;;;5049285;28;20504;-77
2023/01/20 00:55:59;;;;;;;6.00;3.83;;;13.10;51.40;;;;;;5041283;28;20452;-77
2023/01/20 00:58:27;;;;;;;6.90;4.00;;;13.10;51.50;;;;;;5049583;28;20470;-77
2023/01/20 01:00:57;;;;;;;6.63;3.83;;;13.10;51.50;;;;;;5065480;28;20431;-78
2023/01/20 01:03:26;;;;;;;5.53;4.10;;;13.00;51.40;;;;;;5061747;28;20439;-76
2023/01/20 01:05:54;;;;;;;5.40;3.90;;;13.00;51.30;;;;;;5054461;28;20451;-77
2023/01/20 01:08:24;;;;;;;7.03;4.40;;;13.00;51.30;;;;;;5067626;28;20525;-78
2023/01/20 01:10:55;;;;;;;5.10;4.07;;;13.00;51.40;;;;;;5062371;28;20443;-77
2023/01/20 01:13:25;;;;;;;4.60;4.20;;;13.00;51.30;;;;;;5054269;28;20427;-77
2023/01/20 01:15:54;;;;;;;7.13;4.07;;;13.00;51.40;;;;;;5063602;28;20454;-77
2023/01/20 01:18:22;;;;;;;5.90;4.30;;;12.90;51.40;;;;;;5053383;28;20551;-77
2023/01/20 01:20:50;;;;;;;8.43;4.97;;;13.00;51.30;;;;;;5062809;28;20442;-77
2023/01/20 01:23:18;;;;;;;7.90;4.67;;;13.00;51.30;;;;;;5056570;28;20463;-77
2023/01/20 01:25:48;;;;;;;9.77;4.67;;;12.90;51.10;;;;;;5043302;28;20446;-77
2023/01/20 01:28:15;;;;;;;9.23;5.20;;;12.90;51.10;;;;;;5058410;28;20457;-77
2023/01/20 01:30:43;;;;;;;8.13;4.70;;;12.90;51.20;;;;;;5048981;28;20465;-78
2023/01/20 01:33:11;;;;;;;7.50;5.33;;;12.90;51.20;;;;;;5057118;28;20505;-78
2023/01/20 01:35:39;;;;;;;7.20;4.67;;;12.90;51.30;;;;;;5043906;28;20450;-78
2023/01/20 01:38:07;;;;;;;8.47;5.10;;;12.90;51.30;;;;;;5043241;28;20458;-78
2023/01/20 01:40:38;;;;;;;9.60;5.37;;;12.90;51.30;;;;;;5051157;28;20479;-79
2023/01/20 01:43:20;;;;;;;7.80;5.50;;;12.90;51.30;;;;;;5053215;28;20480;-77
2023/01/20 01:45:54;;;;;;;9.60;5.20;;;12.90;51.40;;;;;;5059031;28;20450;-78
2023/01/20 01:48:26;;;;;;;7.30;5.10;;;12.90;51.40;;;;;;5049619;28;20464;-80
2023/01/20 01:50:57;;;;;;;8.80;5.40;;;12.90;51.50;;;;;;5051526;28;20451;-77
2023/01/20 01:53:26;;;;;;;10.07;6.03;;;12.90;51.40;;;;;;5051356;28;20450;-77
2023/01/20 01:55:57;;;;;;;9.63;5.93;;;12.90;51.40;;;;;;5051669;28;20454;-80
2023/01/20 01:58:30;;;;;;;12.40;6.17;;;12.90;51.40;;;;;;5050274;28;20474;-79
2023/01/20 02:00:59;;;;;;;10.13;5.70;;;12.90;51.40;;;;;;5051926;28;20484;-78
2023/01/20 02:03:28;;;;;;;9.87;5.90;;;12.90;51.70;;;;;;5055022;28;20457;-78
2023/01/20 02:05:57;;;;;;;13.73;6.57;;;12.90;51.40;;;;;;5055148;28;20449;-78
2023/01/20 02:08:25;;;;;;;10.63;5.93;;;12.90;51.50;;;;;;5044348;28;20491;-78
2023/01/20 02:10:53;;;;;;;8.70;6.17;;;12.90;51.70;;;;;;5045132;28;20454;-78
2023/01/20 02:13:21;;;;;;;9.67;6.57;;;12.90;51.70;;;;;;5047496;28;20459;-78
2023/01/20 02:16:09;;;;;;;12.03;6.80;;;12.90;51.70;;;;;;5056084;28;20487;-77
2023/01/20 02:18:43;;;;;;;9.57;6.30;;;12.90;51.70;;;;;;5052250;28;20462;-79
2023/01/20 02:21:42;;;;;;;8.67;6.13;;;12.90;51.80;;;;;;5049881;28;20454;-78
2023/01/20 02:24:34;;;;;;;9.80;6.43;;;12.90;51.90;;;;;;5044590;28;20459;-78
2023/01/20 02:27:06;;;;;;;10.17;6.40;;;12.90;52.00;;;;;;5007537;28;20458;-79
2023/01/20 02:29:56;;;;;;;8.00;5.40;;;12.90;52.20;;;;;;5045523;28;20458;-77
2023/01/20 02:32:32;;;;;;;11.50;6.00;;;12.90;52.20;;;;;;5047055;28;20474;-79
2023/01/20 02:35:01;;;;;;;11.60;6.73;;;12.90;52.30;;;;;;5049738;28;20453;-78
2023/01/20 02:37:30;;;;;;;11.90;7.00;;;12.90;52.20;;;;;;5047638;28;20446;-78
2023/01/20 02:40:06;;;;;;;12.93;6.90;;;12.90;52.30;;;;;;5038731;28;20500;-78
2023/01/20 02:42:38;;;;;;;8.47;6.70;;;12.90;52.30;;;;;;5061408;28;20462;-79
2023/01/20 02:45:08;;;;;;;9.80;6.27;;;12.90;52.30;;;;;;5052192;28;20456;-78
2023/01/20 02:47:39;;;;;;;9.97;6.20;;;12.90;52.40;;;;;;5054739;28;20462;-77
2023/01/20 02:50:21;;;;;;;12.40;6.47;;;12.90;52.50;;;;;;5049699;28;20446;-76
2023/01/20 02:52:51;;;;;;;10.73;6.47;;;12.90;52.50;;;;;;5050736;28;20482;-78
2023/01/20 02:55:22;;;;;;;7.70;5.93;;;12.90;52.50;;;;;;5042642;28;20462;-77
2023/01/20 02:57:53;;;;;;;9.57;6.10;;;12.90;52.50;;;;;;5049002;28;20485;-77
2023/01/20 03:00:22;;;;;;;9.53;6.40;;;12.90;52.50;;;;;;5050489;28;20474;-78
2023/01/20 03:02:53;;;;;;;7.30;5.87;;;12.90;52.60;;;;;;5042743;28;20475;-78
2023/01/20 03:05:24;;;;;;;9.90;6.80;;;12.90;52.60;;;;;;5044578;28;20467;-79
2023/01/20 03:07:52;;;;;;;8.00;5.90;;;12.90;52.60;;;;;;5046607;28;20458;-79
2023/01/20 03:10:21;;;;;;;8.47;6.00;;;12.90;52.80;;;;;;5048974;28;20450;-78
2023/01/20 03:12:51;;;;;;;10.77;6.20;;;12.90;52.70;;;;;;5049561;28;20486;-78
2023/01/20 03:15:20;;;;;;;8.40;6.30;;;12.90;52.70;;;;;;5048630;28;20457;-79
2023/01/20 03:17:48;;;;;;;15.63;6.63;;;12.90;52.70;;;;;;5054488;28;20447;-79
2023/01/20 03:20:18;;;;;;;11.10;6.70;;;12.90;52.90;;;;;;5054681;28;20473;-81
2023/01/20 03:22:45;;;;;;;13.67;6.40;;;12.90;52.80;;;;;;5058984;28;20469;-81
2023/01/20 03:25:13;;;;;;;9.43;6.43;;;12.90;52.80;;;;;;5055788;28;20462;-78
2023/01/20 03:27:43;;;;;;;9.70;6.50;;;12.90;52.70;;;;;;5060997;28;20454;-77
2023/01/20 03:30:15;;;;;;;10.80;6.73;;;12.90;52.90;;;;;;5047416;28;20450;-78
2023/01/20 03:32:44;;;;;;;11.13;6.70;;;12.90;52.80;;;;;;5048555;28;20476;-78
2023/01/20 03:35:14;;;;;;;12.27;6.80;;;12.90;52.80;;;;;;5052821;28;20482;-78
2023/01/20 03:37:44;;;;;;;9.80;6.30;;;12.90;52.70;;;;;;5056165;28;20459;-78
2023/01/20 03:40:13;;;;;;;9.43;6.50;;;12.90;52.90;;;;;;5059076;28;20462;-78
2023/01/20 03:42:44;;;;;;;7.37;5.90;;;12.90;52.90;;;;;;5045256;28;20492;-78
2023/01/20 03:45:15;;;;;;;8.70;6.30;;;12.90;52.80;;;;;;5042859;28;20447;-78
2023/01/20 03:47:48;;;;;;;11.13;6.47;;;12.90;52.90;;;;;;5046365;28;20508;-78
2023/01/20 03:50:21;;;;;;;8.73;6.03;;;12.90;52.90;;;;;;5044650;28;20448;-79
2023/01/20 03:52:52;;;;;;;9.73;6.33;;;12.90;52.90;;;;;;5046790;28;20476;-79
2023/01/20 03:55:21;;;;;;;10.90;7.27;;;12.90;53.10;;;;;;5046373;28;20453;-79
2023/01/20 03:57:53;;;;;;;8.60;5.87;;;12.90;53.00;;;;;;5044891;28;20458;-79
2023/01/20 04:00:21;;;;;;;10.50;5.80;;;12.90;53.00;;;;;;5045085;28;20470;-79
2023/01/20 04:02:49;;;;;;;6.70;5.30;;;13.00;53.20;;;;;;5044643;28;20478;-78
2023/01/20 04:05:17;;;;;;;9.30;6.03;;;12.90;53.10;;;;;;5044842;28;20485;-77
2023/01/20 04:07:45;;;;;;;9.80;6.40;;;12.90;53.10;;;;;;5043397;28;20467;-78
2023/01/20 04:10:15;;;;;;;8.90;6.07;;;12.90;53.20;;;;;;5054599;28;20446;-78
2023/01/20 04:12:45;;;;;;;6.70;5.17;;;12.90;53.20;;;;;;5046973;28;20478;-78
2023/01/20 04:15:13;;;;;;;5.30;4.80;;;12.90;53.30;;;;;;5063361;28;20568;-80
2023/01/20 04:17:42;;;;;;;7.27;5.63;;;13.00;53.40;;;;;;5055120;28;20455;-78
2023/01/20 04:20:11;;;;;;;8.80;5.93;;;13.00;53.30;;;;;;5053202;28;20474;-81
2023/01/20 04:22:42;;;;;;;6.83;5.20;;;12.90;53.30;;;;;;5054709;28;20474;-79
2023/01/20 04:25:13;;;;;;;6.60;4.97;;;13.00;53.40;;;;;;5055742;28;20457;-78
2023/01/20 04:27:44;;;;;;;6.17;5.40;;;13.00;53.50;;;;;;5056015;28;20873;-78
2023/01/20 04:30:13;;;;;;;6.07;4.70;;;12.90;53.40;;;;;;5057863;28;20451;-78
2023/01/20 04:32:42;;;;;;;10.87;5.93;;;12.90;53.40;;;;;;5054494;28;20466;-79
2023/01/20 04:35:11;;;;;;;7.10;5.30;;;12.90;53.40;;;;;;5047209;28;20454;-78
2023/01/20 04:37:40;;;;;;;8.57;5.40;;;12.90;53.40;;;;;;5051930;28;20457;-78
2023/01/20 04:40:10;;;;;;;6.67;4.93;;;13.00;53.50;;;;;;5052513;28;20451;-79
2023/01/20 04:42:38;;;;;;;7.50;5.00;;;12.90;53.50;;;;;;5049211;28;20466;-78
2023/01/20 04:45:09;;;;;;;8.33;5.30;;;12.90;53.50;;;;;;5045171;28;20455;-78
2023/01/20 04:47:37;;;;;;;7.57;5.90;;;12.90;53.60;;;;;;5048350;28;20453;-81
2023/01/20 04:50:06;;;;;;;9.67;4.90;;;13.00;53.70;;;;;;5049007;28;20459;-82
2023/01/20 04:52:34;;;;;;;6.53;5.10;;;12.90;53.50;;;;;;5051755;28;20475;-80
2023/01/20 04:55:03;;;;;;;5.53;5.00;;;12.90;53.70;;;;;;5049452;28;20464;-78
2023/01/20 04:57:31;;;;;;;6.03;4.77;;;13.00;53.70;;;;;;5048898;28;20457;-78
2023/01/20 04:59:59;;;;;;;10.53;5.23;;;13.00;53.70;;;;;;5051901;28;20446;-78
2023/01/20 05:02:28;;;;;;;15.37;5.57;;;12.90;53.60;;;;;;5047079;28;20482;-81
2023/01/20 05:04:56;;;;;;;8.60;6.07;;;13.00;53.70;;;;;;5050116;28;20463;-78
2023/01/20 05:07:25;;;;;;;6.07;4.80;;;13.00;53.70;;;;;;5046534;28;20463;-80
2023/01/20 05:09:53;;;;;;;6.57;5.03;;;12.90;53.70;;;;;;5055384;28;20573;-82
2023/01/20 05:12:21;;;;;;;6.77;5.00;;;13.00;53.80;;;;;;5047173;28;20467;-79
2023/01/20 05:14:49;;;;;;;6.77;5.10;;;13.00;53.80;;;;;;5052921;28;20458;-79
2023/01/20 05:17:17;;;;;;;6.00;5.00;;;13.00;53.80;;;;;;5048228;28;20455;-78
2023/01/20 05:19:47;;;;;;;8.70;6.13;;;13.00;53.80;;;;;;5048763;28;20945;-79
2023/01/20 05:22:32;;;;;;;7.43;5.13;;;13.00;53.80;;;;;;5048765;28;20475;-78
2023/01/20 05:25:00;;;;;;;6.27;4.80;;;13.00;53.80;;;;;;5048446;28;20446;-80
2023/01/20 05:27:28;;;;;;;6.53;4.90;;;12.90;53.80;;;;;;5046377;28;20451;-77
2023/01/20 05:29:56;;;;;;;6.00;4.73;;;12.90;53.80;;;;;;5046314;28;20465;-78
2023/01/20 05:32:24;;;;;;;9.17;5.33;;;12.90;53.70;;;;;;5052802;28;20478;-79
2023/01/20 05:34:53;;;;;;;5.60;4.33;;;13.00;53.80;;;;;;5048509;28;20461;-78
2023/01/20 05:37:22;;;;;;;6.77;5.30;;;12.90;53.70;;;;;;5047106;28;20454;-79
2023/01/20 05:39:50;;;;;;;6.60;5.03;;;13.00;53.90;;;;;;5055366;28;20459;-78
2023/01/20 05:42:18;;;;;;;7.27;5.03;;;13.00;53.90;;;;;;5051440;28;20470;-78
2023/01/20 05:44:47;;;;;;;7.27;5.40;;;13.00;53.90;;;;;;5050959;28;20458;-78
2023/01/20 05:47:17;;;;;;;6.03;5.17;;;13.00;53.90;;;;;;5053101;28;20458;-78
2023/01/20 05:49:46;;;;;;;6.93;5.03;;;12.90;53.90;;;;;;5041114;28;20448;-77
2023/01/20 05:52:15;;;;;;;7.37;4.80;;;12.90;53.90;;;;;;5047989;28;20485;-78
2023/01/20 05:54:44;;;;;;;8.20;4.80;;;13.00;53.90;;;;;;5043755;28;20553;-77
2023/01/20 05:57:16;;;;;;;6.30;4.63;;;12.90;53.90;;;;;;5044129;28;20459;-77
2023/01/20 05:59:46;;;;;;;5.23;4.67;;;13.00;54.00;;;;;;5042121;28;20451;-79
2023/01/20 06:02:17;;;;;;;6.10;4.80;;;12.90;53.90;;;;;;5054676;28;20473;-79
2023/01/20 06:04:46;;;;;;;4.97;4.47;;;13.00;54.00;;;;;;5049192;28;20451;-79
2023/01/20 06:07:16;;;;;;;5.37;4.70;;;12.90;53.90;;;;;;5055614;28;20446;-79
2023/01/20 06:09:44;;;;;;;5.67;4.57;;;12.90;54.10;;;;;;5053847;28;20529;-79
2023/01/20 06:12:12;;;;;;;5.90;4.50;;;12.90;54.00;;;;;;5043066;28;20463;-80
2023/01/20 06:14:39;;;;;;;7.07;5.10;;;12.90;54.20;;;;;;5047279;28;20447;-79
2023/01/20 06:17:07;;;;;;;6.87;4.70;;;12.90;54.10;;;;;;5053492;28;20445;-79
2023/01/20 06:19:35;;;;;;;5.93;5.00;;;13.00;54.10;;;;;;5056704;28;20439;-79
2023/01/20 06:22:03;;;;;;;6.47;4.90;;;12.90;54.10;;;;;;5041689;28;20482;-80
2023/01/20 06:24:33;;;;;;;6.00;5.00;;;12.90;54.10;;;;;;5050342;28;20455;-78
2023/01/20 06:27:01;;;;;;;6.57;4.80;;;13.00;54.30;;;;;;5052287;28;20445;-79
2023/01/20 06:29:30;;;;;;;5.57;4.60;;;13.00;54.10;;;;;;5057954;28;20504;-79
2023/01/20 06:31:58;;;;;;;7.40;4.87;;;13.00;54.20;;;;;;5049873;28;20453;-78
2023/01/20 06:34:25;;;;;;;7.90;5.27;;;12.90;54.20;;;;;;5052942;28;20477;-79
2023/01/20 06:36:53;;;;;;;6.07;4.50;;;13.00;54.30;;;;;;5061663;28;20439;-79
2023/01/20 06:39:21;;;;;;;7.03;4.70;;;12.90;54.20;;;;;;5056331;28;20465;-79
2023/01/20 06:41:51;;;;;;;8.13;4.53;;;13.00;54.30;;;;;;5053000;28;20475;-79
2023/01/20 06:44:19;;;;;;;5.40;4.50;;;13.00;54.30;;;;;;5058696;28;20456;-79
2023/01/20 06:46:47;;;;;;;6.40;4.50;;;13.00;54.40;;;;;;5057805;28;20447;-78
2023/01/20 06:49:15;;;;;;;5.87;4.80;;;13.00;54.40;;;;;;5054986;28;20433;-79
2023/01/20 06:51:43;;;;;;;11.13;5.00;;;13.00;54.30;;;;;;5050767;28;20470;-79
2023/01/20 06:54:10;;;;;;;9.30;4.27;;;13.00;54.20;;;;;;5053687;28;20451;-78
2023/01/20 06:56:39;;;;;;;5.87;4.83;;;13.00;54.30;;;;;;5052187;28;20452;-79
2023/01/20 06:59:09;;;;;;;6.20;4.83;;;12.90;54.20;;;;;;5048306;28;20450;-79
2023/01/20 07:01:37;;;;;;;5.03;4.43;;;13.00;54.40;;;;;;5050952;28;20478;-79
2023/01/20 07:04:07;;;;;;;7.03;4.50;;;13.00;54.30;;;;;;5054147;28;20462;-78
2023/01/20 07:06:37;;;;;;;5.60;4.30;;;12.90;54.30;;;;;;5057906;28;20458;-79
2023/01/20 07:09:06;;;;;;;6.40;4.73;;;13.00;54.40;;;;;;5050284;28;20457;-78
2023/01/20 07:11:34;;;;;;;6.77;4.53;;;12.90;54.20;;;;;;5048122;28;20470;-79
2023/01/20 07:14:02;;;;;;;6.00;4.60;;;13.00;54.30;;;;;;5053633;28;20458;-78
2023/01/20 07:16:32;;;;;;;4.57;4.00;;;13.00;54.30;;;;;;5054226;28;20457;-79
2023/01/20 07:19:00;;;;;;;5.23;4.47;;;12.90;54.30;;;;;;5050902;28;20454;-80
2023/01/20 07:21:28;;;;;;;7.30;5.10;;;12.90;54.40;;;;;;5050192;28;20480;-77
2023/01/20 07:23:58;;;;;;;6.47;4.67;;;13.00;54.40;;;;;;5056849;28;20459;-78
2023/01/20 07:26:27;;;;;;;5.43;4.53;;;13.00;54.40;;;;;;5044791;28;20454;-79
2023/01/20 07:28:54;;;;;;;7.23;5.10;;;12.90;54.30;;;;;;5048929;28;20466;-79
2023/01/20 07:31:25;;;;;;;6.53;4.50;;;12.90;54.40;;;;;;5050394;28;20473;-78
2023/01/20 07:33:55;;;;;;;6.80;4.90;;;12.90;54.30;;;;;;5046010;28;20538;-79
2023/01/20 07:36:23;;;;;;;6.50;4.50;;;12.90;54.30;;;;;;5048937;28;20523;-78
2023/01/20 07:38:52;;;;;;;5.50;4.60;;;12.90;54.30;;;;;;5048667;28;20451;-78
2023/01/20 07:41:20;;;;;;;6.33;5.10;;;12.90;54.30;;;;;;5051191;28;20478;-78
2023/01/20 07:43:48;;;;;;;7.90;4.97;;;12.90;54.20;;;;;;5050500;28;20470;-78
2023/01/20 07:46:16;;;;;;;7.90;4.80;;;13.00;54.40;;;;;;5048988;28;20450;-78
2023/01/20 07:48:44;;;;;;;6.23;5.10;;;12.90;54.20;;;;;;5047811;28;20461;-77
2023/01/20 07:51:14;;;;;;;7.03;5.20;;;12.90;54.20;;;;;;5053275;28;20451;-77
2023/01/20 07:53:45;;;;;;;6.00;4.93;;;12.90;54.20;;;;;;5051490;28;20445;-78
2023/01/20 07:56:14;;;;;;;6.77;5.70;;;12.90;54.30;;;;;;5048187;28;20434;-78
2023/01/20 07:58:44;;;;;;;6.23;5.00;;;12.90;54.20;;;;;;5058963;28;20440;-78
2023/01/20 08:01:12;;;;;;;7.80;5.63;;;12.90;54.10;;;;;;5050752;28;20448;-77
2023/01/20 08:03:40;;;;;;;6.13;5.30;;;12.90;54.20;;;;;;5046400;28;20519;-78
2023/01/20 08:06:09;;;;;;;8.83;5.47;;;12.90;54.10;;;;;;5051089;28;20453;-78
2023/01/20 08:08:38;;;;;;;5.73;5.13;;;12.90;54.20;;;;;;5047735;28;20454;-78
2023/01/20 08:11:07;;;;;;;8.20;5.30;;;12.90;54.20;;;;;;5049602;28;20949;-77
2023/01/20 08:13:35;;;;;;;8.07;5.83;;;13.00;54.20;;;;;;5052049;28;20451;-78
2023/01/20 08:16:04;;;;;;;5.73;5.00;;;12.90;54.10;;;;;;5051546;28;20447;-78
2023/01/20 08:18:33;;;;;;;5.63;5.00;;;13.00;54.20;;;;;;5049864;28;20460;-78
2023/01/20 08:21:00;;;;;;;8.80;5.70;;;13.00;54.30;;;;;;5048431;28;20449;-79
2023/01/20 08:23:28;;;;;;;7.67;5.03;;;13.00;54.30;;;;;;5050161;28;20485;-78
2023/01/20 08:25:58;;;;;;;8.60;5.30;;;13.00;54.30;;;;;;5054890;28;20454;-78
2023/01/20 08:28:26;;;;;;;6.80;5.50;;;13.00;54.20;;;;;;5050666;28;20451;-78
2023/01/20 08:30:54;;;;;;;8.80;5.00;;;13.10;54.20;;;;;;5050454;28;20455;-79
2023/01/20 08:33:22;;;;;;;5.30;4.67;;;13.10;54.20;;;;;;5044461;28;20446;-77
2023/01/20 08:35:50;;;;;;;7.80;5.60;;;13.10;54.10;;;;;;5054587;28;20455;-79
2023/01/20 08:38:18;;;;;;;6.20;5.10;;;13.10;54.10;;;;;;5044501;28;20473;-79
2023/01/20 08:40:46;;;;;;;5.60;4.70;;;13.10;54.20;;;;;;5052105;28;20451;-79
2023/01/20 08:43:15;;;;;;;6.10;4.83;;;13.00;54.10;;;;;;5054831;28;20501;-79
2023/01/20 08:45:44;;;;;;;6.80;5.13;;;13.10;54.30;;;;;;5045670;28;20450;-78
2023/01/20 08:48:12;;;;;;;7.70;5.43;;;13.10;54.40;;;;;;5056782;28;20473;-78
2023/01/20 08:50:40;;;;;;;7.40;5.30;;;13.10;54.30;;;;;;5049262;28;20457;-78
2023/01/20 08:53:08;;;;;;;5.83;5.23;;;13.10;54.30;;;;;;5048000;28;20485;-78
2023/01/20 08:55:37;;;;;;;5.53;4.83;;;13.10;54.20;;;;;;5051274;28;20516;-77
2023/01/20 08:58:05;;;;;;;7.67;5.70;;;13.20;54.40;;;;;;5064894;28;20437;-78
2023/01/20 09:00:34;;;;;;;6.00;5.33;;;13.20;54.30;;;;;;5054357;28;20456;-78
2023/01/20 09:03:02;;;;;;;7.13;5.43;;;13.20;54.30;;;;;;5057036;28;20477;-78
2023/01/20 09:05:30;;;;;;;6.03;4.87;;;13.20;54.30;;;;;;5048912;28;20478;-78
2023/01/20 09:07:58;;;;;;;6.57;5.33;;;13.20;54.20;;;;;;5051508;28;20467;-78
2023/01/20 09:10:26;;;;;;;7.67;5.37;;;13.20;54.30;;;;;;5050580;28;20446;-78
2023/01/20 09:12:54;;;;;;;7.03;5.37;;;13.20;54.30;;;;;;5053153;28;20459;-79
2023/01/20 09:15:23;;;;;;;8.00;6.03;;;13.30;54.30;;;;;;5051660;28;20447;-78
2023/01/20 09:17:54;;;;;;;6.40;5.50;;;13.30;54.30;;;;;;5055474;28;20446;-78
2023/01/20 09:20:22;;;;;;;7.60;5.20;;;13.30;54.30;;;;;;5051814;28;20446;-78
2023/01/20 09:22:50;;;;;;;7.93;6.40;;;13.40;54.40;;;;;;5042952;28;20483;-78
2023/01/20 09:25:18;;;;;;;7.67;5.73;;;13.40;54.20;;;;;;5054979;28;20426;-77
2023/01/20 09:27:46;;;;;;;8.93;5.80;;;13.40;54.20;;;;;;5050566;28;20442;-78
2023/01/20 09:30:14;;;;;;;8.90;5.70;;;13.40;54.10;;;;;;5050424;28;20453;-79
2023/01/20 09:32:42;;;;;;;8.07;5.83;;;13.40;54.10;;;;;;5049981;28;20474;-78
2023/01/20 09:35:14;;;;;;;8.50;5.97;;;13.40;54.10;;;;;;5043396;28;20451;-78
2023/01/20 09:46:10;;;;;;;6.73;5.80;;;13.50;54.00;;;;;;5045782;28;20438;-76
2023/01/20 09:54:18;;;;;;;6.33;5.70;;;13.50;54.20;;;;;;5044662;28;20447;-78
2023/01/20 09:56:47;;;;;;;7.40;5.40;;;13.50;54.10;;;;;;5051123;28;20439;-78
2023/01/20 09:59:16;;;;;;;9.67;5.80;;;13.60;54.10;;;;;;5052180;28;20436;-78
2023/01/20 10:01:45;;;;;;;6.40;5.40;;;13.60;54.20;;;;;;5047926;28;20473;-79
2023/01/20 10:04:15;;;;;;;7.40;5.90;;;13.60;54.10;;;;;;5046507;28;20466;-78
2023/01/20 10:06:45;;;;;;;8.73;5.60;;;13.60;54.10;;;;;;5049196;28;20450;-78
2023/01/20 10:09:20;;;;;;;6.80;5.20;;;13.60;54.00;;;;;;5040489;28;20450;-79
2023/01/20 10:11:48;;;;;;;7.33;5.80;;;13.60;54.00;;;;;;5043436;28;20864;-79
2023/01/20 10:14:18;;;;;;;7.90;5.97;;;13.60;53.90;;;;;;5045896;28;20459;-78
2023/01/20 10:16:50;;;;;;;9.10;6.07;;;13.70;54.00;;;;;;5047528;28;20518;-78
2023/01/20 10:19:26;;;;;;;7.03;5.80;;;13.70;53.90;;;;;;5043923;28;20459;-79
2023/01/20 10:21:58;;;;;;;10.30;7.27;;;13.70;53.80;;;;;;5045667;28;20467;-78
2023/01/20 10:24:29;;;;;;;8.20;6.50;;;13.70;53.80;;;;;;5049897;28;20467;-77
2023/01/20 10:26:58;;;;;;;9.23;6.40;;;13.70;53.60;;;;;;5048451;28;20454;-78
2023/01/20 10:29:29;;;;;;;8.13;6.53;;;13.70;53.70;;;;;;5047898;28;20450;-79
2023/01/20 10:31:59;;;;;;;11.07;6.53;;;13.70;53.50;;;;;;5054926;28;20489;-78
2023/01/20 10:34:31;;;;;;;8.13;6.20;;;13.70;53.50;;;;;;5048651;28;20455;-78
2023/01/20 10:37:03;;;;;;;8.47;6.60;;;13.70;53.50;;;;;;5056393;28;20533;-78
2023/01/20 10:39:35;;;;;;;9.97;6.53;;;13.70;53.30;;;;;;5043705;28;20469;-78
2023/01/20 10:42:04;;;;;;;8.17;6.27;;;13.70;53.40;;;;;;5057558;28;20470;-80
2023/01/20 10:44:34;;;;;;;9.50;6.70;;;13.80;53.40;;;;;;5057112;28;20497;-78
2023/01/20 10:47:18;;;;;;;10.73;6.63;;;13.80;53.40;;;;;;5056158;28;20482;-78
2023/01/20 10:50:15;;;;;;;9.90;6.40;;;13.80;53.40;;;;;;5056613;28;20454;-79
2023/01/20 10:53:10;;;;;;;9.97;6.37;;;13.80;53.40;;;;;;5054486;28;20542;-77
2023/01/20 10:55:47;;;;;;;8.93;6.20;;;13.80;53.40;;;;;;5059461;28;20459;-78
2023/01/20 10:58:18;;;;;;;8.07;6.33;;;13.70;54.00;;;;;;5049975;28;20455;-78
2023/01/20 11:00:46;;;;;;;7.23;5.60;;;13.70;53.50;;;;;;5049333;28;20574;-77
2023/01/20 11:03:15;;;;;;;10.43;6.13;;;13.70;53.60;;;;;;5045424;28;20493;-78
2023/01/20 11:05:43;;;;;;;9.93;6.07;;;13.70;53.50;;;;;;5047214;28;20499;-76
2023/01/20 11:08:15;;;;;;;8.27;6.13;;;13.80;53.80;;;;;;5047451;28;20465;-77
2023/01/20 11:10:44;;;;;;;9.23;5.63;;;13.80;53.70;;;;;;5052154;28;20457;-78
2023/01/20 11:13:12;;;;;;;7.83;6.10;;;13.80;53.70;;;;;;5050847;28;20481;-78
2023/01/20 11:15:43;;;;;;;7.10;5.67;;;13.90;53.70;;;;;;5054175;28;20453;-78
2023/01/20 11:18:20;;;;;;;8.03;5.90;;;13.90;53.60;;;;;;5052981;28;20446;-76
2023/01/20 11:20:48;;;;;;;9.90;5.77;;;13.90;53.80;;;;;;5057181;28;20465;-78
2023/01/20 11:23:21;;;;;;;6.10;5.30;;;13.90;53.70;;;;;;5046276;28;20477;-78
2023/01/20 11:25:56;;;;;;;7.90;5.63;;;13.90;53.80;;;;;;5052817;28;20478;-78
2023/01/20 11:28:24;;;;;;;8.27;4.93;;;13.90;53.70;;;;;;5047947;28;20457;-78
2023/01/20 11:30:53;;;;;;;6.73;5.10;;;13.90;53.80;;;;;;5051396;28;20482;-78
2023/01/20 11:33:23;;;;;;;9.00;6.10;;;13.90;53.70;;;;;;5048781;28;20474;-77
2023/01/20 11:35:58;;;;;;;6.60;5.20;;;13.90;53.80;;;;;;5049513;28;20458;-78
2023/01/20 11:38:28;;;;;;;6.87;5.30;;;14.00;53.90;;;;;;5059689;28;20438;-79
2023/01/20 11:40:57;;;;;;;7.53;5.90;;;14.00;54.00;;;;;;5078281;28;20446;-78
2023/01/20 11:43:29;;;;;;;7.37;5.53;;;14.00;54.00;;;;;;5071578;28;20435;-79
2023/01/20 11:46:11;;;;;;;6.00;5.20;;;14.00;53.90;;;;;;5075319;28;20462;-79
2023/01/20 11:48:39;;;;;;;7.10;5.40;;;14.00;54.00;;;;;;5075713;28;20457;-79
2023/01/20 11:51:18;;;;;;;8.03;5.67;;;14.00;54.00;;;;;;5073582;28;20455;-78
2023/01/20 11:53:48;;;;;;;6.83;4.90;;;14.00;54.00;;;;;;5074198;28;20445;-79
2023/01/20 11:56:18;;;;;;;9.00;5.30;;;14.10;54.20;;;;;;5071958;28;20447;-78
2023/01/20 11:58:51;;;;;;;4.70;4.30;;;14.10;54.10;;;;;;5074237;28;20451;-79
2023/01/20 12:01:22;;;;;;;7.30;5.53;;;14.10;54.10;;;;;;5072919;28;20470;-79
2023/01/20 12:04:13;;;;;;;7.75;5.45;;;14.10;54.20;;;;;;5075046;28;20434;-79
2023/01/20 12:06:46;;;;;;;5.00;4.50;;;14.10;54.10;;;;;;5068613;28;20469;-78
2023/01/20 12:09:16;;;;;;;5.70;4.43;;;14.10;54.20;;;;;;5060572;28;20457;-78
2023/01/20 12:11:49;;;;;;;5.87;4.90;;;14.20;54.30;;;;;;5051276;28;20478;-77
2023/01/20 12:14:27;;;;;;;5.97;4.73;;;14.20;54.20;;;;;;5049006;28;20455;-76
2023/01/20 12:17:15;;;;;;;6.60;5.30;;;14.20;54.20;;;;;;5054882;28;20442;-78
2023/01/20 12:19:57;;;;;;;5.40;4.50;;;14.20;54.20;;;;;;5051290;28;20465;-77
2023/01/20 12:22:27;;;;;;;5.90;5.27;;;14.30;54.20;;;;;;5046106;28;20475;-76
2023/01/20 12:25:09;;;;;;;7.57;5.00;;;14.30;54.20;;;;;;5057757;28;20470;-77
2023/01/20 12:27:41;;;;;;;5.10;4.60;;;14.30;54.30;;;;;;5047820;28;20866;-77
2023/01/20 12:30:30;;;;;;;6.90;4.90;;;14.30;54.30;;;;;;5049321;28;20461;-78
2023/01/20 12:32:58;;;;;;;6.93;4.73;;;14.40;54.30;;;;;;5051634;28;20478;-78
2023/01/20 12:35:29;;;;;;;5.57;4.97;;;14.40;54.20;;;;;;5056833;28;20449;-77
2023/01/20 12:37:57;;;;;;;4.77;4.30;;;14.40;54.20;;;;;;5060268;28;20478;-76
2023/01/20 12:40:36;;;;;;;5.03;4.53;;;14.40;54.30;;;;;;5055935;28;20443;-77
2023/01/20 12:43:25;;;;;;;6.53;4.90;;;14.50;54.30;;;;;;5050484;28;20465;-78
2023/01/20 12:45:59;;;;;;;5.10;4.60;;;14.50;54.20;;;;;;5047445;28;20525;-78
2023/01/20 12:48:33;;;;;;;4.50;4.10;;;14.50;54.20;;;;;;5049030;28;20442;-77
2023/01/20 12:51:09;;;;;;;8.73;5.20;;;14.50;55.00;;;;;;5060008;28;20452;-77
2023/01/20 12:53:50;;;;;;;8.57;6.17;;;14.50;54.30;;;;;;5050218;28;20532;-76
2023/01/20 12:56:23;;;;;;;9.00;6.70;;;14.40;54.40;;;;;;5054908;28;20491;-77
2023/01/20 12:58:56;;;;;;;11.13;6.90;;;14.50;54.50;;;;;;5058806;28;20447;-76
2023/01/20 13:01:49;;;;;;;11.87;8.03;;;14.50;54.50;;;;;;5056047;28;20557;-76
2023/01/20 13:04:55;;;;;;;11.33;8.50;;;14.50;54.50;;;;;;5052365;28;20498;-78
2023/01/20 13:07:38;;;;;;;12.50;8.90;;;14.50;54.50;;;;;;5047260;28;20466;-77
2023/01/20 13:10:16;;;;;;;12.63;8.87;;;14.50;54.60;;;;;;5048770;28;20451;-78
2023/01/20 13:12:50;;;;;;;13.87;9.93;;;14.50;54.80;;;;;;5046485;28;20478;-80
2023/01/20 13:15:21;;;;;;;16.13;10.57;;;14.50;54.90;;;;;;5047999;28;20509;-76
2023/01/20 13:18:00;;;;;;;15.23;9.97;;;14.50;54.90;;;;;;5051195;28;20451;-78